Time;durP1;ratioP1;P1;durP2;ratioP2;P2;SDS_P1;SDS_P2;PMS_P1;PMS_P2;Temp;Humidity;BMP_temperature;BMP_pressure;BME280_temperature;BME280_humidity;BME280_pressure;Samples;Min_cycle;Max_cycle;Signal;HPM_P1;HPM_P2
2023/06/14 00:00:35;;;;;;;4.63;1.13;;;20.10;76.40;;;;;;5071426;28;20198;-68
2023/06/14 00:03:03;;;;;;;2.67;0.60;;;20.10;77.00;;;;;;5071426;28;20179;-69
2023/06/14 00:05:33;;;;;;;1.10;0.60;;;20.10;75.00;;;;;;5053288;28;20329;-69
2023/06/14 00:08:00;;;;;;;1.47;0.80;;;20.20;72.50;;;;;;5071836;28;20280;-68
2023/06/14 00:10:30;;;;;;;0.60;0.40;;;20.60;71.20;;;;;;5071106;28;20282;-68
2023/06/14 00:12:59;;;;;;;3.80;0.60;;;20.90;68.30;;;;;;5057100;28;20678;-67
2023/06/14 00:15:27;;;;;;;1.83;0.50;;;21.00;62.30;;;;;;5053051;28;20195;-68
2023/06/14 00:17:56;;;;;;;2.70;1.13;;;21.00;59.20;;;;;;5070955;28;20269;-68
2023/06/14 00:20:24;;;;;;;0.43;0.30;;;21.20;59.30;;;;;;5071643;28;20172;-68
2023/06/14 00:22:51;;;;;;;0.90;0.40;;;21.70;57.20;;;;;;5071146;28;20188;-68
2023/06/14 00:25:19;;;;;;;1.97;0.57;;;21.30;57.40;;;;;;5070869;28;20204;-68
2023/06/14 00:27:47;;;;;;;1.27;0.50;;;21.40;54.30;;;;;;5071778;28;20175;-69
2023/06/14 00:30:15;;;;;;;0.60;0.40;;;21.90;56.30;;;;;;5071435;28;20174;-68
2023/06/14 00:32:43;;;;;;;2.23;0.60;;;21.80;54.50;;;;;;5070618;28;20229;-67
2023/06/14 00:35:12;;;;;;;1.30;0.40;;;21.40;53.40;;;;;;5051501;28;20545;-68
2023/06/14 00:37:40;;;;;;;1.53;0.50;;;21.00;53.20;;;;;;5051039;28;20198;-67
2023/06/14 00:40:08;;;;;;;0.90;0.30;;;20.60;51.80;;;;;;5069685;28;20191;-67
2023/06/14 00:42:36;;;;;;;1.13;0.43;;;20.80;49.80;;;;;;5070980;28;20180;-67
2023/06/14 00:45:04;;;;;;;3.67;0.37;;;20.80;49.20;;;;;;5071273;28;20214;-68
2023/06/14 00:47:32;;;;;;;3.33;0.70;;;20.70;48.60;;;;;;5071001;28;20255;-67
2023/06/14 00:50:00;;;;;;;1.80;0.60;;;20.90;49.10;;;;;;5071241;28;20238;-67
2023/06/14 00:52:29;;;;;;;2.20;0.50;;;21.10;46.90;;;;;;5071330;28;20230;-68
2023/06/14 00:54:57;;;;;;;1.30;0.43;;;21.50;47.50;;;;;;5052980;28;20188;-69
2023/06/14 00:57:25;;;;;;;4.13;0.57;;;21.50;45.60;;;;;;5071478;28;20198;-69
2023/06/14 00:59:52;;;;;;;1.17;0.40;;;21.30;45.90;;;;;;5071285;28;20182;-70
2023/06/14 01:02:20;;;;;;;0.93;0.50;;;21.60;45.90;;;;;;5073475;28;20182;-69
2023/06/14 01:04:50;;;;;;;3.03;0.50;;;21.70;46.70;;;;;;5074884;28;20261;-69
2023/06/14 01:07:42;;;;;;;0.80;0.40;;;21.30;43.00;;;;;;5074925;28;20180;-69
2023/06/14 01:10:21;;;;;;;4.10;0.50;;;21.10;44.50;;;;;;5054401;28;20183;-68
2023/06/14 01:12:49;;;;;;;1.90;0.50;;;21.00;43.70;;;;;;5074687;28;20187;-68
2023/06/14 01:15:17;;;;;;;2.27;0.70;;;21.40;44.50;;;;;;5074608;28;20264;-68
2023/06/14 01:17:47;;;;;;;2.20;0.40;;;20.90;42.80;;;;;;5073757;28;20190;-68
2023/06/14 01:20:17;;;;;;;2.17;0.40;;;21.50;42.90;;;;;;5074451;28;20211;-68
2023/06/14 01:22:54;;;;;;;1.90;0.47;;;21.30;42.50;;;;;;5073918;28;20199;-68
2023/06/14 01:25:23;;;;;;;1.50;0.33;;;21.90;43.80;;;;;;5057731;28;20215;-68
2023/06/14 01:27:53;;;;;;;1.30;0.50;;;22.50;42.20;;;;;;5074347;28;20184;-68
2023/06/14 01:30:25;;;;;;;4.47;0.60;;;22.20;41.40;;;;;;5056639;28;20180;-68
2023/06/14 01:32:54;;;;;;;2.80;0.60;;;21.90;40.00;;;;;;5073965;28;20176;-68
2023/06/14 01:35:22;;;;;;;3.33;0.90;;;22.20;40.10;;;;;;5074077;28;20195;-68
2023/06/14 01:37:51;;;;;;;1.47;0.40;;;22.30;37.90;;;;;;5073979;28;20692;-67
2023/06/14 01:40:21;;;;;;;1.80;0.40;;;22.00;39.50;;;;;;5073767;28;20250;-68
2023/06/14 01:42:51;;;;;;;1.30;0.50;;;21.80;36.90;;;;;;5074092;28;20564;-68
2023/06/14 01:45:20;;;;;;;2.47;0.30;;;22.20;37.10;;;;;;5074432;28;20222;-68
2023/06/14 01:47:49;;;;;;;0.97;0.50;;;22.30;34.30;;;;;;5074192;28;20176;-69
2023/06/14 01:50:19;;;;;;;2.20;0.50;;;22.20;33.80;;;;;;5074028;28;20254;-69
2023/06/14 01:52:47;;;;;;;1.70;0.70;;;21.80;30.10;;;;;;5074212;28;20187;-69
2023/06/14 01:55:17;;;;;;;2.07;0.60;;;21.40;29.00;;;;;;5074049;28;20174;-69
2023/06/14 01:57:45;;;;;;;2.67;0.47;;;21.70;27.40;;;;;;5074308;28;20549;-69
2023/06/14 02:00:14;;;;;;;2.37;0.57;;;21.30;28.20;;;;;;5073772;28;20198;-69
2023/06/14 02:02:42;;;;;;;3.73;0.70;;;21.30;27.20;;;;;;5074054;28;20189;-69
2023/06/14 02:05:10;;;;;;;3.17;0.60;;;21.00;27.70;;;;;;5074066;28;20207;-68
2023/06/14 02:07:38;;;;;;;1.53;0.60;;;21.40;26.70;;;;;;5073721;28;20179;-68
2023/06/14 02:10:06;;;;;;;2.03;0.70;;;21.30;27.70;;;;;;5073455;28;20728;-69
2023/06/14 02:12:34;;;;;;;1.07;0.43;;;21.30;26.30;;;;;;5073468;28;20629;-69
2023/06/14 02:15:03;;;;;;;2.70;0.50;;;21.10;26.20;;;;;;5073625;28;20183;-69
2023/06/14 02:17:31;;;;;;;3.47;0.60;;;21.10;25.90;;;;;;5073661;28;20188;-68
2023/06/14 02:19:59;;;;;;;2.67;0.50;;;21.20;26.60;;;;;;5073583;28;20222;-69
2023/06/14 02:22:27;;;;;;;0.73;0.50;;;21.30;25.80;;;;;;5073447;28;20205;-69
2023/06/14 02:24:55;;;;;;;1.07;0.40;;;21.00;25.80;;;;;;5073665;28;20216;-68
2023/06/14 02:27:22;;;;;;;1.23;0.50;;;21.10;24.60;;;;;;5055398;28;20183;-69
2023/06/14 02:29:50;;;;;;;1.20;0.43;;;21.20;26.60;;;;;;5073275;28;20611;-69
2023/06/14 02:32:18;;;;;;;1.33;0.50;;;21.40;25.70;;;;;;5073409;28;20199;-69
2023/06/14 02:34:49;;;;;;;4.20;0.73;;;21.80;24.00;;;;;;5073548;28;20168;-69
2023/06/14 02:37:20;;;;;;;1.93;0.50;;;21.40;24.60;;;;;;5072932;28;20187;-69
2023/06/14 02:39:47;;;;;;;3.50;0.60;;;21.40;23.30;;;;;;5073426;28;20183;-67
2023/06/14 02:42:15;;;;;;;3.17;1.00;;;21.30;22.80;;;;;;5073290;28;20254;-68
2023/06/14 02:44:43;;;;;;;2.63;0.90;;;21.70;23.40;;;;;;5072862;28;20238;-68
2023/06/14 02:47:11;;;;;;;3.47;0.60;;;21.60;23.40;;;;;;5073078;28;20708;-68
2023/06/14 02:49:39;;;;;;;3.93;0.60;;;21.60;21.90;;;;;;5073084;28;20171;-68
2023/06/14 02:52:08;;;;;;;1.37;0.60;;;21.70;22.20;;;;;;5072652;28;20202;-68
2023/06/14 02:54:37;;;;;;;2.43;0.50;;;22.00;22.50;;;;;;5072896;28;20183;-69
2023/06/14 02:57:06;;;;;;;1.30;0.50;;;22.00;21.90;;;;;;5073058;28;20182;-68
2023/06/14 02:59:35;;;;;;;2.03;0.60;;;21.70;22.80;;;;;;5072376;28;20208;-67
2023/06/14 03:02:03;;;;;;;4.10;0.67;;;21.70;22.90;;;;;;5072929;28;20289;-68
2023/06/14 03:04:37;;;;;;;7.33;0.80;;;21.70;22.50;;;;;;5072752;28;20273;-68
2023/06/14 03:07:19;;;;;;;4.27;0.60;;;22.20;21.80;;;;;;5072207;28;20180;-68
2023/06/14 03:09:47;;;;;;;1.40;0.50;;;21.80;22.20;;;;;;5072774;28;20234;-68
2023/06/14 03:12:15;;;;;;;2.73;0.50;;;21.80;21.50;;;;;;5072722;28;20226;-68
2023/06/14 03:14:45;;;;;;;5.30;0.70;;;21.60;22.00;;;;;;5072316;28;20656;-68
2023/06/14 03:17:13;;;;;;;2.20;0.50;;;21.70;23.00;;;;;;5054645;28;20191;-68
2023/06/14 03:19:41;;;;;;;4.33;0.70;;;21.80;22.60;;;;;;5072297;28;20231;-68
2023/06/14 03:22:11;;;;;;;1.23;0.40;;;21.90;21.50;;;;;;5072032;28;20172;-68
2023/06/14 03:24:39;;;;;;;7.20;0.70;;;21.90;21.80;;;;;;5071443;28;20273;-68
2023/06/14 03:27:09;;;;;;;1.00;0.53;;;21.70;21.40;;;;;;5071986;28;20181;-67
2023/06/14 03:29:37;;;;;;;1.57;0.80;;;21.70;21.90;;;;;;5070814;28;20211;-68
2023/06/14 03:32:05;;;;;;;4.37;0.87;;;21.90;21.50;;;;;;5072032;28;20194;-67
2023/06/14 03:34:33;;;;;;;3.23;0.57;;;21.90;21.20;;;;;;5072204;28;20172;-68
2023/06/14 03:37:01;;;;;;;2.07;0.70;;;21.90;21.20;;;;;;5071777;28;20176;-68
2023/06/14 03:39:28;;;;;;;6.83;1.17;;;21.80;20.50;;;;;;5071865;28;20183;-68
2023/06/14 03:41:56;;;;;;;2.20;1.00;;;21.50;20.60;;;;;;5072286;28;20172;-69
2023/06/14 03:44:24;;;;;;;4.97;0.70;;;21.40;20.10;;;;;;5071716;28;20211;-69
2023/06/14 03:46:51;;;;;;;4.10;0.90;;;21.50;20.40;;;;;;5072036;28;20180;-69
2023/06/14 03:49:19;;;;;;;2.37;0.70;;;21.60;19.90;;;;;;5071864;28;20759;-69
2023/06/14 03:51:50;;;;;;;1.33;0.60;;;21.70;20.80;;;;;;5072975;28;20645;-68
2023/06/14 03:54:18;;;;;;;7.60;0.93;;;21.70;21.60;;;;;;5072202;28;20557;-67
2023/06/14 03:56:46;;;;;;;1.60;0.67;;;21.50;20.80;;;;;;5072226;28;20258;-69
2023/06/14 03:59:14;;;;;;;1.13;0.50;;;21.40;19.00;;;;;;5072883;28;20194;-69
2023/06/14 04:01:44;;;;;;;6.53;0.83;;;21.30;19.10;;;;;;5073247;28;20170;-69
2023/06/14 04:04:12;;;;;;;2.43;0.70;;;21.30;20.10;;;;;;5073114;28;20207;-69
2023/06/14 04:06:40;;;;;;;4.20;0.90;;;21.10;19.30;;;;;;5072701;28;20176;-68
2023/06/14 04:09:08;;;;;;;2.83;0.63;;;21.00;18.70;;;;;;5072801;28;20206;-68
2023/06/14 04:11:35;;;;;;;1.70;0.50;;;21.20;18.00;;;;;;5073073;28;20540;-69
2023/06/14 04:14:03;;;;;;;3.30;0.93;;;21.10;17.50;;;;;;5072992;28;20543;-69
2023/06/14 04:16:31;;;;;;;3.67;0.70;;;21.00;17.90;;;;;;5073166;28;20332;-67
2023/06/14 04:18:59;;;;;;;1.63;0.70;;;20.90;18.10;;;;;;5060826;28;20245;-69
2023/06/14 04:21:31;;;;;;;2.43;0.80;;;20.60;17.70;;;;;;5052721;28;20387;-69
2023/06/14 04:24:01;;;;;;;3.97;0.67;;;20.90;17.60;;;;;;5052691;28;20715;-69
2023/06/14 04:26:29;;;;;;;3.17;0.80;;;20.80;17.00;;;;;;5052907;28;20184;-71
2023/06/14 04:29:01;;;;;;;3.07;0.70;;;20.70;16.00;;;;;;5052583;28;20181;-69
2023/06/14 04:31:37;;;;;;;2.13;0.80;;;20.50;16.20;;;;;;5052269;28;20197;-69
2023/06/14 04:34:05;;;;;;;2.70;0.70;;;20.40;16.90;;;;;;5052626;28;20262;-69
2023/06/14 04:36:34;;;;;;;2.90;0.60;;;20.70;17.90;;;;;;5055806;28;20656;-70
2023/06/14 04:39:03;;;;;;;2.67;0.67;;;20.80;16.90;;;;;;5056836;28;20254;-69
2023/06/14 04:41:31;;;;;;;1.73;0.73;;;20.80;16.60;;;;;;5056550;28;20630;-68
2023/06/14 04:44:01;;;;;;;4.87;0.60;;;20.80;17.20;;;;;;5056783;28;20319;-70
2023/06/14 04:46:43;;;;;;;2.03;0.57;;;20.80;17.30;;;;;;5056487;28;20208;-69
2023/06/14 04:49:17;;;;;;;1.60;0.70;;;20.50;16.80;;;;;;5056572;28;20216;-70
2023/06/14 04:51:46;;;;;;;5.83;1.30;;;20.30;17.10;;;;;;5056633;28;20169;-68
2023/06/14 04:54:14;;;;;;;5.93;0.90;;;20.30;18.40;;;;;;5056622;28;20637;-69
2023/06/14 04:56:46;;;;;;;3.60;1.00;;;20.40;18.10;;;;;;5056304;28;20184;-69
2023/06/14 04:59:14;;;;;;;6.63;0.80;;;20.50;18.10;;;;;;5056507;28;20583;-69
2023/06/14 05:01:47;;;;;;;2.90;0.57;;;20.50;17.90;;;;;;5056200;28;20173;-68
2023/06/14 05:04:16;;;;;;;3.30;0.60;;;20.50;16.90;;;;;;5056179;28;20208;-68
2023/06/14 05:06:48;;;;;;;5.40;0.80;;;20.10;16.60;;;;;;5056326;28;20555;-69
2023/06/14 05:09:19;;;;;;;2.40;0.70;;;19.90;17.80;;;;;;5055928;28;20191;-68
2023/06/14 05:11:47;;;;;;;2.63;0.70;;;19.90;18.10;;;;;;5037979;28;20245;-69
2023/06/14 05:14:15;;;;;;;2.33;0.63;;;19.70;17.00;;;;;;5055939;28;20261;-69
2023/06/14 05:16:43;;;;;;;3.53;0.70;;;19.70;17.30;;;;;;5056024;28;20177;-69
2023/06/14 05:19:11;;;;;;;3.03;0.63;;;19.60;16.80;;;;;;5055829;28;20238;-69
2023/06/14 05:21:39;;;;;;;1.57;0.50;;;19.50;16.50;;;;;;5056024;28;20646;-69
2023/06/14 05:24:08;;;;;;;2.50;0.70;;;19.30;17.60;;;;;;5055971;28;20200;-68
2023/06/14 05:26:36;;;;;;;2.77;0.77;;;19.30;17.50;;;;;;5055598;28;20208;-69
2023/06/14 05:29:04;;;;;;;2.23;0.80;;;19.30;18.40;;;;;;5056012;28;20180;-69
2023/06/14 05:31:32;;;;;;;2.77;0.80;;;19.30;18.50;;;;;;5055608;28;20195;-68
2023/06/14 05:34:00;;;;;;;3.67;0.80;;;19.10;19.20;;;;;;5055894;28;20223;-69
2023/06/14 05:36:28;;;;;;;4.67;1.07;;;18.70;17.90;;;;;;5055622;28;20177;-69
2023/06/14 05:38:57;;;;;;;1.90;0.83;;;18.50;18.80;;;;;;5055700;28;20545;-69
2023/06/14 05:41:26;;;;;;;0.80;0.43;;;18.30;19.10;;;;;;5055223;28;20203;-69
2023/06/14 05:43:56;;;;;;;3.00;0.80;;;18.20;19.40;;;;;;5055327;28;20207;-69
2023/06/14 05:46:25;;;;;;;3.87;0.80;;;18.00;19.90;;;;;;5054789;28;20648;-69
2023/06/14 05:48:53;;;;;;;1.57;0.90;;;17.90;20.10;;;;;;5055109;28;20173;-68
2023/06/14 05:51:21;;;;;;;1.20;0.60;;;17.80;21.10;;;;;;5055315;28;20592;-69
2023/06/14 05:53:50;;;;;;;2.67;0.80;;;17.70;21.00;;;;;;5037849;28;20551;-69
2023/06/14 05:56:18;;;;;;;6.47;1.10;;;17.60;21.60;;;;;;5055305;28;20636;-69
2023/06/14 05:58:50;;;;;;;2.90;0.80;;;17.50;22.50;;;;;;5055193;28;20177;-69
2023/06/14 06:01:18;;;;;;;7.93;1.07;;;17.40;22.80;;;;;;5037136;28;20586;-69
2023/06/14 06:03:46;;;;;;;10.70;1.33;;;17.30;23.40;;;;;;5055081;28;20222;-69
2023/06/14 06:06:14;;;;;;;2.30;0.90;;;17.20;23.00;;;;;;5055314;28;20208;-68
2023/06/14 06:08:42;;;;;;;3.50;0.83;;;17.10;23.70;;;;;;5055243;28;20667;-69
2023/06/14 06:11:10;;;;;;;3.43;1.00;;;17.00;24.20;;;;;;5054911;28;20259;-68
2023/06/14 06:13:39;;;;;;;1.80;0.80;;;17.00;22.30;;;;;;5054732;28;20173;-69
2023/06/14 06:16:06;;;;;;;4.00;0.93;;;16.90;21.60;;;;;;5054917;28;20172;-68
2023/06/14 06:18:35;;;;;;;2.87;0.90;;;16.90;21.80;;;;;;5062911;28;20239;-69
2023/06/14 06:21:04;;;;;;;3.67;1.10;;;16.80;21.80;;;;;;5075025;28;20215;-70
2023/06/14 06:23:32;;;;;;;3.23;0.70;;;16.80;22.00;;;;;;5075068;28;20217;-69
2023/06/14 06:26:00;;;;;;;4.90;1.00;;;16.70;21.90;;;;;;5074799;28;20219;-68
2023/06/14 06:28:28;;;;;;;2.13;1.20;;;16.60;22.40;;;;;;5074732;28;20176;-69
2023/06/14 06:30:55;;;;;;;1.23;0.60;;;16.50;22.70;;;;;;5056151;28;20214;-69
2023/06/14 06:33:23;;;;;;;2.17;0.87;;;16.40;22.50;;;;;;5074786;28;20168;-69
2023/06/14 06:35:51;;;;;;;2.47;0.80;;;16.40;23.70;;;;;;5074796;28;20184;-70
2023/06/14 06:38:19;;;;;;;3.37;1.00;;;16.30;24.40;;;;;;5074387;28;20180;-69
2023/06/14 06:40:47;;;;;;;7.13;0.90;;;16.20;23.60;;;;;;5074433;28;20175;-69
2023/06/14 06:43:16;;;;;;;3.80;1.10;;;16.10;24.00;;;;;;5074483;28;20172;-69
2023/06/14 06:45:44;;;;;;;6.50;0.90;;;16.00;24.60;;;;;;5074552;28;20214;-69
2023/06/14 06:48:12;;;;;;;3.90;1.10;;;15.90;25.00;;;;;;5074251;28;20266;-69
2023/06/14 06:50:40;;;;;;;6.33;1.20;;;15.80;25.60;;;;;;5074296;28;20175;-70
2023/06/14 06:53:07;;;;;;;7.43;1.50;;;15.70;25.60;;;;;;5074162;28;20669;-68
2023/06/14 06:55:35;;;;;;;4.30;1.50;;;15.60;27.10;;;;;;5074349;28;20176;-70
2023/06/14 06:58:05;;;;;;;3.67;1.00;;;15.40;27.60;;;;;;5074478;28;20178;-68
2023/06/14 07:00:32;;;;;;;6.77;1.23;;;15.50;26.50;;;;;;5074750;28;20179;-69
2023/06/14 07:03:01;;;;;;;1.83;0.80;;;15.40;27.40;;;;;;5074346;28;20179;-68
2023/06/14 07:05:28;;;;;;;2.47;1.10;;;15.50;26.80;;;;;;5073826;28;20632;-69
2023/06/14 07:07:56;;;;;;;3.73;1.00;;;15.40;27.50;;;;;;5073775;28;20262;-69
2023/06/14 07:10:27;;;;;;;7.03;1.10;;;15.30;27.90;;;;;;5073623;28;20219;-68
2023/06/14 07:12:55;;;;;;;6.13;1.20;;;15.30;28.40;;;;;;5073794;28;20174;-68
2023/06/14 07:15:23;;;;;;;4.90;1.50;;;15.20;29.10;;;;;;5074371;28;20211;-68
2023/06/14 07:17:51;;;;;;;3.57;1.10;;;15.10;29.50;;;;;;5074512;28;20267;-69
2023/06/14 07:20:21;;;;;;;3.23;0.70;;;15.10;30.00;;;;;;5073542;28;20267;-68
2023/06/14 07:22:49;;;;;;;3.00;1.27;;;15.00;30.50;;;;;;5073596;28;20179;-68
2023/06/14 07:25:19;;;;;;;5.57;1.10;;;14.90;31.50;;;;;;5073673;28;20214;-68
2023/06/14 07:27:48;;;;;;;2.27;1.07;;;14.90;31.80;;;;;;5073602;28;20707;-68
2023/06/14 07:30:15;;;;;;;6.03;1.37;;;14.90;31.80;;;;;;5073558;28;20274;-67
2023/06/14 07:32:43;;;;;;;3.80;1.17;;;14.90;32.30;;;;;;5073362;28;20179;-69
2023/06/14 07:35:11;;;;;;;4.60;1.67;;;14.80;32.40;;;;;;5073873;28;20535;-68
2023/06/14 07:37:39;;;;;;;4.20;1.33;;;14.80;34.00;;;;;;5073563;28;20171;-68
2023/06/14 07:40:07;;;;;;;6.13;1.37;;;14.70;35.30;;;;;;5073632;28;20257;-69
2023/06/14 07:42:36;;;;;;;5.03;1.10;;;14.60;36.90;;;;;;5073437;28;20183;-69
2023/06/14 07:45:05;;;;;;;2.77;1.00;;;14.50;38.60;;;;;;5073209;28;20221;-71
2023/06/14 07:47:34;;;;;;;2.03;0.90;;;14.50;39.80;;;;;;5073311;28;20171;-67
2023/06/14 07:50:02;;;;;;;12.27;1.30;;;14.40;40.90;;;;;;5073061;28;20564;-68
2023/06/14 07:52:34;;;;;;;3.47;1.07;;;14.50;42.60;;;;;;5073456;28;20183;-70
2023/06/14 07:55:02;;;;;;;4.43;0.90;;;14.50;43.30;;;;;;5073485;28;20537;-68
2023/06/14 07:57:29;;;;;;;5.10;1.33;;;14.50;44.40;;;;;;5073233;28;20264;-69
2023/06/14 07:59:57;;;;;;;1.63;0.90;;;14.40;45.10;;;;;;5073387;28;20271;-69
2023/06/14 08:02:25;;;;;;;3.13;0.90;;;14.40;45.90;;;;;;5073139;28;20258;-69
2023/06/14 08:04:54;;;;;;;5.43;1.77;;;14.30;46.80;;;;;;5073060;28;20207;-69
2023/06/14 08:07:21;;;;;;;4.07;0.90;;;14.20;48.40;;;;;;5073142;28;20261;-69
2023/06/14 08:09:49;;;;;;;2.23;1.03;;;14.10;50.30;;;;;;5072990;28;20617;-69
2023/06/14 08:12:17;;;;;;;4.67;0.80;;;14.00;50.40;;;;;;5073065;28;20581;-69
2023/06/14 08:14:45;;;;;;;4.10;1.20;;;14.00;51.70;;;;;;5073090;28;20185;-69
2023/06/14 08:17:13;;;;;;;4.03;1.30;;;13.90;53.40;;;;;;5072882;28;20211;-68
2023/06/14 08:19:40;;;;;;;2.17;1.37;;;13.80;54.80;;;;;;5072895;28;20234;-69
2023/06/14 08:22:11;;;;;;;10.93;1.70;;;13.70;56.30;;;;;;5072928;28;20633;-69
2023/06/14 08:24:40;;;;;;;2.57;1.60;;;13.80;57.00;;;;;;5072933;28;20267;-69
2023/06/14 08:27:08;;;;;;;5.97;1.83;;;13.80;58.70;;;;;;5073005;28;20194;-70
2023/06/14 08:29:38;;;;;;;2.93;1.13;;;13.70;58.40;;;;;;5072758;28;20171;-69
2023/06/14 08:32:06;;;;;;;2.73;1.10;;;13.70;57.90;;;;;;5072945;28;20178;-69
2023/06/14 08:34:34;;;;;;;3.40;1.00;;;13.70;57.60;;;;;;5072901;28;20179;-68
2023/06/14 08:37:02;;;;;;;2.40;0.90;;;13.70;57.90;;;;;;5073046;28;20636;-70
2023/06/14 08:39:29;;;;;;;3.57;0.97;;;13.80;58.40;;;;;;5072659;28;20282;-69
2023/06/14 08:41:58;;;;;;;2.10;1.00;;;13.80;58.50;;;;;;5072934;28;20235;-69
2023/06/14 08:44:26;;;;;;;5.73;1.83;;;13.70;59.80;;;;;;5072674;28;20207;-69
2023/06/14 08:46:57;;;;;;;1.57;0.57;;;13.70;61.40;;;;;;5072638;28;20171;-69
2023/06/14 08:49:27;;;;;;;2.47;0.80;;;13.60;62.60;;;;;;5072840;28;20523;-69
2023/06/14 08:51:59;;;;;;;2.80;1.00;;;13.50;65.90;;;;;;5072706;28;20197;-69
2023/06/14 08:54:31;;;;;;;2.17;1.10;;;13.40;66.80;;;;;;5072732;28;20313;-69
2023/06/14 08:56:59;;;;;;;2.87;1.30;;;13.40;69.70;;;;;;5072709;28;20202;-70
2023/06/14 08:59:33;;;;;;;1.73;1.20;;;13.30;72.60;;;;;;5072720;28;20558;-68
2023/06/14 09:02:03;;;;;;;2.93;0.83;;;13.20;76.70;;;;;;5072482;28;20642;-68
2023/06/14 09:04:32;;;;;;;2.47;0.93;;;13.10;81.00;;;;;;5072285;28;20703;-69
2023/06/14 09:07:00;;;;;;;1.93;1.00;;;13.10;83.30;;;;;;5072600;28;20214;-68
2023/06/14 09:09:28;;;;;;;2.87;1.13;;;13.00;85.30;;;;;;5072383;28;20205;-69
2023/06/14 09:11:56;;;;;;;2.73;1.03;;;13.10;87.00;;;;;;5072229;28;20179;-69
2023/06/14 09:14:25;;;;;;;3.93;1.10;;;13.00;90.10;;;;;;5072605;28;20174;-68
2023/06/14 09:16:56;;;;;;;1.63;0.90;;;12.90;92.00;;;;;;5072261;28;20175;-69
2023/06/14 09:19:27;;;;;;;2.30;1.13;;;12.80;93.40;;;;;;5072127;28;20232;-69
2023/06/14 09:21:55;;;;;;;1.97;1.00;;;12.80;95.00;;;;;;5072993;28;20193;-69
2023/06/14 09:24:28;;;;;;;2.23;1.17;;;12.60;96.70;;;;;;5075924;28;20607;-69
2023/06/14 09:26:57;;;;;;;1.60;1.20;;;12.50;99.40;;;;;;5076361;28;20192;-69
2023/06/14 09:29:26;;;;;;;3.97;1.53;;;12.30;99.90;;;;;;5075989;28;20181;-69
2023/06/14 09:31:54;;;;;;;3.57;1.60;;;12.20;99.90;;;;;;5057760;28;20194;-69
2023/06/14 09:34:23;;;;;;;2.00;1.33;;;12.10;99.90;;;;;;5075816;28;20293;-68
2023/06/14 09:36:51;;;;;;;2.93;1.40;;;11.90;99.90;;;;;;5075767;28;20176;-69
2023/06/14 09:39:19;;;;;;;3.77;1.60;;;11.90;99.90;;;;;;5075754;28;20572;-69
2023/06/14 09:41:47;;;;;;;2.97;1.60;;;11.90;99.90;;;;;;5075884;28;20165;-69
2023/06/14 09:44:15;;;;;;;4.23;1.50;;;12.00;99.90;;;;;;5075594;28;20226;-69
2023/06/14 09:46:44;;;;;;;2.67;1.20;;;12.10;99.90;;;;;;5075717;28;20270;-69
2023/06/14 09:49:11;;;;;;;3.17;1.10;;;12.00;99.90;;;;;;5075632;28;20184;-69
2023/06/14 09:51:45;;;;;;;3.07;1.07;;;12.00;99.90;;;;;;5075786;28;20178;-69
2023/06/14 09:54:18;;;;;;;3.80;1.10;;;11.90;99.90;;;;;;5075461;28;20257;-68
2023/06/14 09:56:49;;;;;;;1.87;1.00;;;11.80;99.90;;;;;;5075365;28;20290;-68
2023/06/14 09:59:29;;;;;;;5.10;1.27;;;11.70;99.90;;;;;;5075537;28;20520;-69
2023/06/14 10:01:59;;;;;;;2.37;1.23;;;11.80;99.90;;;;;;5075433;28;20271;-69
2023/06/14 10:04:30;;;;;;;4.90;1.33;;;11.70;99.90;;;;;;5075232;28;20713;-69
2023/06/14 10:06:59;;;;;;;1.87;1.23;;;11.50;99.90;;;;;;5075225;28;20629;-69
2023/06/14 10:09:27;;;;;;;2.10;1.00;;;11.40;99.90;;;;;;5075146;28;20175;-68
2023/06/14 10:11:55;;;;;;;2.73;1.10;;;11.30;99.90;;;;;;5075093;28;20631;-69
2023/06/14 10:14:24;;;;;;;3.57;1.20;;;11.20;99.90;;;;;;5075134;28;20185;-68
2023/06/14 10:17:05;;;;;;;3.67;1.10;;;11.10;99.90;;;;;;5075059;28;20189;-69
2023/06/14 10:20:05;;;;;;;1.37;1.07;;;10.90;99.90;;;;;;5074573;28;20618;-69
2023/06/14 10:22:43;;;;;;;6.97;1.53;;;10.90;99.90;;;;;;5060302;28;20276;-69
2023/06/14 10:25:26;;;;;;;6.13;2.40;;;10.80;99.90;;;;;;5074977;28;20210;-69
2023/06/14 10:28:03;;;;;;;5.10;2.20;;;10.80;99.90;;;;;;5074698;28;20611;-69
2023/06/14 10:30:31;;;;;;;2.23;1.50;;;10.80;99.90;;;;;;5074845;28;20686;-68
2023/06/14 10:33:10;;;;;;;6.57;2.13;;;10.60;99.90;;;;;;5056643;28;20184;-68
2023/06/14 10:35:37;;;;;;;4.33;2.07;;;10.50;99.90;;;;;;5056768;28;20283;-68
2023/06/14 10:38:14;;;;;;;3.13;1.70;;;10.30;99.90;;;;;;5074816;28;20175;-68
2023/06/14 10:40:42;;;;;;;3.57;1.83;;;10.20;99.90;;;;;;5074671;28;20183;-69
2023/06/14 10:43:24;;;;;;;4.83;1.80;;;10.10;99.90;;;;;;5074543;28;20213;-68
2023/06/14 10:46:29;;;;;;;5.23;1.77;;;9.90;99.90;;;;;;5074538;28;20230;-68
2023/06/14 10:48:58;;;;;;;4.10;2.00;;;9.80;99.90;;;;;;4973739;28;20662;-68
2023/06/14 10:51:30;;;;;;;2.07;1.57;;;9.80;99.90;;;;;;5058810;28;20672;-68
2023/06/14 10:54:00;;;;;;;5.37;1.60;;;9.90;99.90;;;;;;5074411;28;20176;-68
2023/06/14 10:56:30;;;;;;;3.53;1.50;;;9.80;99.90;;;;;;5074498;28;20217;-68
2023/06/14 10:58:59;;;;;;;1.53;1.37;;;9.80;99.90;;;;;;5074434;28;20170;-69
2023/06/14 11:01:58;;;;;;;3.10;1.50;;;9.80;99.90;;;;;;5074315;28;20177;-69
2023/06/14 11:04:51;;;;;;;3.67;1.80;;;9.70;99.90;;;;;;5027980;28;20211;-68
2023/06/14 11:07:24;;;;;;;4.13;1.63;;;9.60;99.90;;;;;;5074254;28;20186;-69
2023/06/14 11:10:07;;;;;;;3.73;1.87;;;9.40;99.90;;;;;;5073953;28;20186;-68
2023/06/14 11:12:37;;;;;;;3.30;1.63;;;9.40;99.90;;;;;;5074066;28;20178;-69
2023/06/14 11:15:05;;;;;;;6.40;1.70;;;9.50;99.90;;;;;;5074155;28;20231;-68
2023/06/14 11:17:34;;;;;;;4.80;1.70;;;9.50;99.90;;;;;;5073901;28;20179;-69
2023/06/14 11:20:16;;;;;;;5.30;2.40;;;9.40;99.90;;;;;;5053840;28;20659;-69
2023/06/14 11:22:43;;;;;;;3.03;2.00;;;9.30;99.90;;;;;;5053852;28;20171;-69
2023/06/14 11:25:14;;;;;;;4.43;1.87;;;9.20;99.90;;;;;;5053843;28;20654;-69
2023/06/14 11:27:45;;;;;;;9.20;3.00;;;9.10;99.90;;;;;;5053974;28;20258;-69
2023/06/14 11:30:14;;;;;;;4.47;1.87;;;9.10;99.90;;;;;;5053781;28;20181;-69
2023/06/14 11:32:42;;;;;;;4.30;1.97;;;9.00;99.90;;;;;;5053720;28;20189;-69
2023/06/14 11:35:10;;;;;;;5.33;1.40;;;9.30;99.90;;;;;;5053580;28;20610;-69
2023/06/14 11:37:38;;;;;;;3.23;1.23;;;9.40;99.90;;;;;;5035699;28;20179;-69
2023/06/14 11:40:09;;;;;;;4.53;1.60;;;9.60;99.90;;;;;;5045405;28;20178;-68
2023/06/14 11:42:38;;;;;;;6.63;1.87;;;9.60;99.90;;;;;;5053637;28;20169;-69
2023/06/14 11:45:09;;;;;;;4.70;1.73;;;9.80;99.90;;;;;;5044663;28;20211;-69
2023/06/14 11:47:38;;;;;;;4.80;1.67;;;9.80;99.90;;;;;;5053552;28;20237;-69
2023/06/14 11:50:08;;;;;;;4.30;1.60;;;9.80;99.90;;;;;;5045061;28;20181;-68
2023/06/14 11:52:37;;;;;;;5.83;1.97;;;9.70;99.90;;;;;;5036187;28;20228;-69
2023/06/14 11:55:06;;;;;;;6.07;2.10;;;9.50;99.90;;;;;;5053697;28;20224;-69
2023/06/14 11:57:38;;;;;;;5.97;2.03;;;9.40;99.90;;;;;;5053148;28;20174;-69
2023/06/14 12:00:11;;;;;;;5.73;2.30;;;9.30;99.90;;;;;;5045374;28;20230;-69
2023/06/14 12:02:42;;;;;;;3.67;1.83;;;9.10;99.90;;;;;;5053095;28;20172;-69
2023/06/14 12:05:10;;;;;;;5.90;1.70;;;8.90;99.90;;;;;;5053053;28;20702;-69
2023/06/14 12:07:41;;;;;;;2.83;1.70;;;8.90;99.90;;;;;;5053238;28;20260;-69
2023/06/14 12:10:10;;;;;;;6.90;2.03;;;8.70;99.90;;;;;;5052739;28;20558;-69
2023/06/14 12:12:40;;;;;;;3.97;1.93;;;8.60;99.90;;;;;;5053375;28;20180;-69
2023/06/14 12:15:11;;;;;;;5.73;2.20;;;8.50;99.90;;;;;;5045097;28;20226;-69
2023/06/14 12:17:42;;;;;;;6.57;1.80;;;8.40;99.90;;;;;;5053261;28;20231;-68
2023/06/14 12:20:16;;;;;;;4.10;1.93;;;8.40;99.90;;;;;;5073147;28;20180;-69
2023/06/14 12:22:57;;;;;;;6.77;2.30;;;8.20;99.90;;;;;;5073092;28;20176;-68
2023/06/14 12:25:36;;;;;;;2.57;1.60;;;8.20;99.90;;;;;;5072914;28;20213;-69
2023/06/14 12:28:08;;;;;;;4.70;2.00;;;8.20;99.90;;;;;;5073759;28;20172;-68
2023/06/14 12:30:37;;;;;;;6.47;2.20;;;8.20;99.90;;;;;;5054631;28;20180;-68
2023/06/14 12:33:05;;;;;;;5.40;2.03;;;8.10;99.90;;;;;;5073227;28;20173;-69
2023/06/14 12:35:33;;;;;;;6.37;2.30;;;8.10;99.90;;;;;;5072832;28;20180;-69
2023/06/14 12:38:00;;;;;;;8.07;2.00;;;8.10;99.90;;;;;;5072943;28;20667;-69
2023/06/14 12:40:28;;;;;;;3.17;1.83;;;8.00;99.90;;;;;;5072834;28;20174;-68
2023/06/14 12:42:55;;;;;;;5.50;2.00;;;8.00;99.90;;;;;;5073528;28;20313;-68
2023/06/14 12:45:23;;;;;;;2.83;1.70;;;7.90;99.90;;;;;;5072537;28;20627;-69
2023/06/14 12:47:51;;;;;;;4.37;1.93;;;8.00;99.90;;;;;;5072312;28;20180;-72
2023/06/14 12:50:19;;;;;;;4.10;1.80;;;8.10;99.90;;;;;;5071301;28;20186;-78
2023/06/14 12:52:46;;;;;;;3.93;2.20;;;8.10;99.90;;;;;;5072348;28;20209;-78
2023/06/14 12:55:14;;;;;;;4.90;1.77;;;8.10;99.90;;;;;;5054708;28;20207;-79
2023/06/14 12:57:41;;;;;;;4.17;1.83;;;8.10;99.90;;;;;;5075853;28;20185;-76
2023/06/14 13:00:10;;;;;;;3.13;1.70;;;8.10;99.90;;;;;;5074164;28;20215;-77